Sea Robin — WDG6181 — position and weather

sailwx.info

Track history (hours):
 
Tides and Currents Weather Stations Pressure Air Temp Water Temp Dewpoint Dewpoint Depression Visibility Wind Speed Wind Dir Waves Ship Positions

Sea Robin

Owner: Kirby Offshore Marine, LLC, Staten Island, NY. More information available from US FCC via Universal Licensing System and Coast Guard Vessel Documentation Center.

Last reported at 2017-Nov-20 00:28 UTC. Time now 2017-Nov-20 03:59 UTC.
Position N 40°00' W 075°04'.

Length 32 m; draft 5 m.

Type: Tow > 200 m length. MMSI: 366836950.

Date/timePositionNaut miles runAvg speedWind from/ knotsBaromVisibWave heightAir tempDewpointWater temp
2017-Nov-20 00:28N 40°00' W 075°04'0 0.0
2017-Nov-19 23:58N 40°00' W 075°04'0 0.0
2017-Nov-19 23:28N 40°00' W 075°04'0 0.0
2017-Nov-19 22:58N 40°00' W 075°04'0 0.0
2017-Nov-19 22:28N 40°00' W 075°04'0 0.0
2017-Nov-19 21:58N 40°00' W 075°04'0 0.0
2017-Nov-19 21:28N 40°00' W 075°04'0 0.0
2017-Nov-19 20:58N 40°00' W 075°04'0 0.0
2017-Nov-19 20:28N 40°00' W 075°04'0 0.0
2017-Nov-19 19:58N 40°00' W 075°04'0 0.0
2017-Nov-19 19:28N 40°00' W 075°04'0 0.0
2017-Nov-19 18:58N 40°00' W 075°04'0 0.0
2017-Nov-19 18:28N 40°00' W 075°04'0 0.0
2017-Nov-19 17:58N 40°00' W 075°04'0 0.0
2017-Nov-19 17:30N 40°00' W 075°04'0 0.0
2017-Nov-19 17:00N 40°00' W 075°04'0 0.0
2017-Nov-19 16:30N 40°00' W 075°04'0 0.0
2017-Nov-19 16:00N 40°00' W 075°04'0 0.0
2017-Nov-19 15:30N 40°00' W 075°04'0 0.0
2017-Nov-19 15:00N 40°00' W 075°04'0 0.0
2017-Nov-19 14:30N 40°00' W 075°04'0 0.0
2017-Nov-19 14:00N 40°00' W 075°04'0 0.0
2017-Nov-19 13:30N 40°00' W 075°04'0 0.0
2017-Nov-19 13:00N 40°00' W 075°04'2 4.2
2017-Nov-19 12:30N 39°58' W 075°06'4 7.5
2017-Nov-19 12:00N 39°55' W 075°08'3 6.0
2017-Nov-19 11:31N 39°53' W 075°11'4 7.7
2017-Nov-19 11:00N 39°56' W 075°08'5 9.1
2017-Nov-19 10:30N 39°59' W 075°04'1 1.2
2017-Nov-19 10:00N 40°00' W 075°04'0 0.0
2017-Nov-19 09:31N 40°00' W 075°04'0 0.0
2017-Nov-19 08:59N 40°00' W 075°04'0 0.0
2017-Nov-19 08:29N 40°00' W 075°04'0 0.0
2017-Nov-19 07:59N 40°00' W 075°04'0 0.0
2017-Nov-19 07:29N 40°00' W 075°04'0 0.0
2017-Nov-19 06:59N 40°00' W 075°04'0 0.0
2017-Nov-19 06:29N 40°00' W 075°04'0 0.0
2017-Nov-19 05:59N 40°00' W 075°04'0 0.0
2017-Nov-19 05:29N 40°00' W 075°04'0 0.0
2017-Nov-19 04:59N 40°00' W 075°04'0 0.0
2017-Nov-19 04:29N 40°00' W 075°04'0 0.0
2017-Nov-19 03:59N 40°00' W 075°04'0 0.0
2017-Nov-19 03:29N 40°00' W 075°04'0 0.0
2017-Nov-19 02:59N 40°00' W 075°04'0 0.0
2017-Nov-19 02:29N 40°00' W 075°04'0 0.0
2017-Nov-19 01:59N 40°00' W 075°04'0 0.0
2017-Nov-19 01:29N 40°00' W 075°04'0 0.0
2017-Nov-19 00:59N 40°00' W 075°04'0 0.0
2017-Nov-19 00:29N 40°00' W 075°04'0 0.0
2017-Nov-18 23:59N 40°00' W 075°04'0 0.0
2017-Nov-18 23:29N 40°00' W 075°04'0 0.0
2017-Nov-18 22:59N 40°00' W 075°04'0 0.0
2017-Nov-18 22:29N 40°00' W 075°04'0 0.0
2017-Nov-18 21:59N 40°00' W 075°04'0 0.0
2017-Nov-18 21:29N 40°00' W 075°04'0 0.0
2017-Nov-18 20:59N 40°00' W 075°04'0 0.0
2017-Nov-18 20:29N 40°00' W 075°04'0 0.0
2017-Nov-18 19:59N 40°00' W 075°04'0 0.0
2017-Nov-18 19:29N 40°00' W 075°04'0 0.0
2017-Nov-18 18:59N 40°00' W 075°04'0 0.0
2017-Nov-18 18:29N 40°00' W 075°04'0 0.0
2017-Nov-18 17:59N 40°00' W 075°04'0 0.0
2017-Nov-18 17:29N 40°00' W 075°04'0 0.0
2017-Nov-18 16:59N 40°00' W 075°04'0 0.0
2017-Nov-18 15:43N 40°00' W 075°04'0 0.0
2017-Nov-18 15:28N 40°00' W 075°04'0 0.0
2017-Nov-18 14:58N 40°00' W 075°04'0 0.0
2017-Nov-18 14:28N 40°00' W 075°04'0 0.0
2017-Nov-18 13:58N 40°00' W 075°04'0 0.0
2017-Nov-18 13:28N 40°00' W 075°04'0 0.0
2017-Nov-18 12:58N 40°00' W 075°04'0 0.0
2017-Nov-18 12:28N 40°00' W 075°04'0 0.0
2017-Nov-18 11:58N 40°00' W 075°04'0 0.0
2017-Nov-18 11:28N 40°00' W 075°04'0 0.0
2017-Nov-18 10:58N 40°00' W 075°04'0 0.0
2017-Nov-18 10:28N 40°00' W 075°04'0 0.0
2017-Nov-18 09:58N 40°00' W 075°04'0 0.0
2017-Nov-18 09:28N 40°00' W 075°04'0 0.0
2017-Nov-18 08:58N 40°00' W 075°04'0 0.0
2017-Nov-18 08:28N 40°00' W 075°04'0 0.0
2017-Nov-18 07:58N 40°00' W 075°04'0 0.0
2017-Nov-18 07:28N 40°00' W 075°04'0 0.0
2017-Nov-18 06:58N 40°00' W 075°04'0 0.0
2017-Nov-18 06:28N 40°00' W 075°04'0 0.0
2017-Nov-18 05:58N 40°00' W 075°04'0 0.0
2017-Nov-18 05:28N 40°00' W 075°04'0 0.0
2017-Nov-18 04:58N 40°00' W 075°04'0 0.0
2017-Nov-18 04:28N 40°00' W 075°04'0 0.0
2017-Nov-18 03:58N 40°00' W 075°04'0 0.0
2017-Nov-18 03:28N 40°00' W 075°04'0 0.0
2017-Nov-18 02:58N 40°00' W 075°04'0 0.0
2017-Nov-18 02:28N 40°00' W 075°04'0 0.0
2017-Nov-18 01:58N 40°00' W 075°04'0 0.0
2017-Nov-18 01:28N 40°00' W 075°04'0 0.0
2017-Nov-18 00:58N 40°00' W 075°04'0 0.0
2017-Nov-18 00:28N 40°00' W 075°04'0 0.0
2017-Nov-17 23:58N 40°00' W 075°04'0 0.0
2017-Nov-17 23:28N 40°00' W 075°04'0 0.0
2017-Nov-17 22:58N 40°00' W 075°04'0 0.0
2017-Nov-17 22:28N 40°00' W 075°04'0 0.0
2017-Nov-17 21:58N 40°00' W 075°04'0 0.0
2017-Nov-17 21:28N 40°00' W 075°04'0 0.0
2017-Nov-17 20:58N 40°00' W 075°04'0 0.0
2017-Nov-17 20:28N 40°00' W 075°04'0 0.0
2017-Nov-17 19:58N 40°00' W 075°04'0 0.0
2017-Nov-17 19:28N 40°00' W 075°04'0 0.0
2017-Nov-17 18:58N 40°00' W 075°04'0 0.0
2017-Nov-17 18:28N 40°00' W 075°04'0 0.0
2017-Nov-17 17:58N 40°00' W 075°04'0 0.0
2017-Nov-17 17:28N 40°00' W 075°04'0 0.0
2017-Nov-17 16:58N 40°00' W 075°04'0 0.0
2017-Nov-17 16:28N 40°00' W 075°04'0 0.0
2017-Nov-17 15:58N 40°00' W 075°04'0 0.0
2017-Nov-17 15:28N 40°00' W 075°04'0 0.0
2017-Nov-17 14:58N 40°00' W 075°04'0 0.0
2017-Nov-17 14:28N 40°00' W 075°04'0 0.0
2017-Nov-17 13:58N 40°00' W 075°04'0 0.0
2017-Nov-17 13:28N 40°00' W 075°04'0 0.0
2017-Nov-17 12:58N 40°00' W 075°04'0 0.0
2017-Nov-17 12:28N 40°00' W 075°04'0 0.0
2017-Nov-17 11:58N 40°00' W 075°04'0 0.0
2017-Nov-17 11:28N 40°00' W 075°04'0 0.0
2017-Nov-17 10:58N 40°00' W 075°04'0 0.0
2017-Nov-17 10:28N 40°00' W 075°04'0 0.0
2017-Nov-17 09:58N 40°00' W 075°04'0 0.0
2017-Nov-17 09:28N 40°00' W 075°04'0 0.0
2017-Nov-17 08:58N 40°00' W 075°04'0 0.0
2017-Nov-17 08:28N 40°00' W 075°04'0 0.0
2017-Nov-17 07:58N 40°00' W 075°04'0 0.0
2017-Nov-17 07:28N 40°00' W 075°04'0 0.0
2017-Nov-17 06:58N 40°00' W 075°04'0 0.0
2017-Nov-17 06:28N 40°00' W 075°04'0 0.0
2017-Nov-17 05:58N 40°00' W 075°04'0 0.0
2017-Nov-17 05:28N 40°00' W 075°04'0 0.0
2017-Nov-17 04:58N 40°00' W 075°04'0 0.0
2017-Nov-17 04:28N 40°00' W 075°04'0 0.0
2017-Nov-17 03:58N 40°00' W 075°04'0 0.0
2017-Nov-17 03:28N 40°00' W 075°04'0 0.0
2017-Nov-17 02:58N 40°00' W 075°04'0 0.0
2017-Nov-17 02:28N 40°00' W 075°04'0 0.0
2017-Nov-17 01:58N 40°00' W 075°04'0 0.0
2017-Nov-17 01:28N 40°00' W 075°04'0 0.0
2017-Nov-17 00:58N 40°00' W 075°04'0 0.0
2017-Nov-17 00:28N 40°00' W 075°04'0 0.0
2017-Nov-16 23:58N 40°00' W 075°04'0 0.0
2017-Nov-16 23:28N 40°00' W 075°04'0 0.0
2017-Nov-16 22:58N 40°00' W 075°04'0 0.0
2017-Nov-16 22:28N 40°00' W 075°04'0 0.0
2017-Nov-16 21:58N 40°00' W 075°04'0 0.0
2017-Nov-16 21:28N 40°00' W 075°04'0 0.0
2017-Nov-16 20:58N 40°00' W 075°04'0 0.0
2017-Nov-16 20:28N 40°00' W 075°04'0 0.0
2017-Nov-16 20:01N 40°00' W 075°04'0 0.1
2017-Nov-16 19:30N 39°60' W 075°04'2 3.1
2017-Nov-16 19:01N 39°59' W 075°05'3 6.3
2017-Nov-16 18:30N 39°57' W 075°08'3 6.6
2017-Nov-16 18:01N 39°54' W 075°08'3 6.9
2017-Nov-16 17:30N 39°52' W 075°12'4 7.7
2017-Nov-16 17:00N 39°51' W 075°17'3 5.8
2017-Nov-16 16:30N 39°51' W 075°21'5 9.2
2017-Nov-16 16:01N 39°48' W 075°25'510.1
2017-Nov-16 15:31N 39°44' W 075°30'5 9.8
2017-Nov-16 15:00N 39°40' W 075°32'4 8.9
2017-Nov-16 14:31N 39°35' W 075°34'3 6.0
2017-Nov-16 14:01N 39°33' W 075°36'4 8.9
2017-Nov-16 13:31N 39°33' W 075°42'5 9.3
2017-Nov-16 13:01N 39°32' W 075°48'4 7.6
2017-Nov-16 12:30N 39°31' W 075°53'4 8.0
2017-Nov-16 12:00N 39°29' W 075°57'5 9.7
2017-Nov-16 11:30N 39°25' W 076°01'510.0
2017-Nov-16 11:01N 39°23' W 076°07'510.3
2017-Nov-16 10:31N 39°20' W 076°12'5 9.9
2017-Nov-16 10:01N 39°15' W 076°14'5 9.7
2017-Nov-16 09:31N 39°11' W 076°17'5 9.1
2017-Nov-16 09:01N 39°06' W 076°20'4 8.3
2017-Nov-16 08:31N 39°03' W 076°21'5 9.8
2017-Nov-16 08:00N 38°58' W 076°23'4 8.7
2017-Nov-16 07:30N 38°54' W 076°24'  
2017-Nov-11 09:30N 37°07' W 076°38'4 8.1
2017-Nov-11 09:00N 37°04' W 076°36'4 7.4
2017-Nov-11 08:27N 37°02' W 076°31'4 8.2
2017-Nov-11 08:00N 36°60' W 076°28'2 4.1
2017-Nov-11 07:30N 36°58' W 076°26'2 3.0
2017-Nov-11 07:00N 36°57' W 076°24'3 5.6
2017-Nov-11 06:31N 36°58' W 076°21'0 0.6
2017-Nov-11 06:01N 36°58' W 076°21'2 4.5
2017-Nov-11 05:30N 36°59' W 076°19'3 5.0
2017-Nov-11 05:00N 37°00' W 076°16'2 4.3
2017-Nov-11 04:30N 37°00' W 076°13'3 5.1
2017-Nov-11 04:00N 36°60' W 076°10'2 4.5
2017-Nov-11 03:30N 37°02' W 076°09'3 6.3
2017-Nov-11 03:00N 37°05' W 076°09'4 7.5
2017-Nov-11 02:30N 37°09' W 076°09'4 7.4
2017-Nov-11 02:00N 37°12' W 076°10'55 7.0
2017-Nov-10 18:06N 38°08' W 076°16'43 7.5
2017-Nov-10 12:19N 38°50' W 076°26'2 7.7
2017-Nov-10 12:00N 38°52' W 076°25'4 8.0
2017-Nov-10 11:30N 38°56' W 076°24'3 6.5
2017-Nov-10 10:59N 38°60' W 076°23'3 5.4
2017-Nov-10 10:30N 39°02' W 076°22'3 5.1
2017-Nov-10 10:00N 39°04' W 076°20'1 2.3
2017-Nov-10 09:31N 39°05' W 076°20'2 3.1
2017-Nov-10 09:01N 39°07' W 076°19'4 7.5
2017-Nov-10 08:30N 39°10' W 076°18'4 8.1
2017-Nov-10 08:00N 39°14' W 076°15'4 7.9
2017-Nov-10 07:30N 39°18' W 076°14'4 7.5
2017-Nov-10 07:00N 39°21' W 076°11'4 7.4
2017-Nov-10 06:30N 39°23' W 076°07'3 7.0
2017-Nov-10 06:00N 39°24' W 076°03'3 6.6
2017-Nov-10 05:30N 39°27' W 075°60'3 6.2
2017-Nov-10 05:00N 39°29' W 075°57'3 5.2
2017-Nov-10 04:30N 39°30' W 075°54'3 5.2
2017-Nov-10 04:00N 39°32' W 075°51'2 4.6
2017-Nov-10 03:30N 39°32' W 075°48'3 5.1
2017-Nov-10 03:00N 39°32' W 075°45'3 5.6
2017-Nov-10 02:30N 39°33' W 075°42'3 6.2
2017-Nov-10 02:00N 39°33' W 075°38'4 7.0
2017-Nov-10 01:30N 39°34' W 075°33'4 7.7
2017-Nov-10 01:01N 39°37' W 075°35'5 9.4
2017-Nov-10 00:31N 39°41' W 075°31'  
Track history (hours):
 
Tides and Currents Weather Stations Pressure Air Temp Water Temp Dewpoint Dewpoint Depression Visibility Wind Speed Wind Dir Waves Ship Positions

Sea Robin

Owner: Kirby Offshore Marine, LLC, Staten Island, NY. More information available from US FCC via Universal Licensing System and Coast Guard Vessel Documentation Center.

Last reported at 2017-Nov-20 00:28 UTC. Time now 2017-Nov-20 03:59 UTC.
Position N 40°00' W 075°04'.

Length 32 m; draft 5 m.

Type: Tow > 200 m length. MMSI: 366836950.

Date/timePositionNaut miles runAvg speedWind from/ knotsBaromVisibWave heightAir tempDewpointWater temp
2017-Nov-20 00:28N 40°00' W 075°04'0 0.0
2017-Nov-19 23:58N 40°00' W 075°04'0 0.0
2017-Nov-19 23:28N 40°00' W 075°04'0 0.0
2017-Nov-19 22:58N 40°00' W 075°04'0 0.0
2017-Nov-19 22:28N 40°00' W 075°04'0 0.0
2017-Nov-19 21:58N 40°00' W 075°04'0 0.0
2017-Nov-19 21:28N 40°00' W 075°04'0 0.0
2017-Nov-19 20:58N 40°00' W 075°04'0 0.0
2017-Nov-19 20:28N 40°00' W 075°04'0 0.0
2017-Nov-19 19:58N 40°00' W 075°04'0 0.0
2017-Nov-19 19:28N 40°00' W 075°04'0 0.0
2017-Nov-19 18:58N 40°00' W 075°04'0 0.0
2017-Nov-19 18:28N 40°00' W 075°04'0 0.0
2017-Nov-19 17:58N 40°00' W 075°04'0 0.0
2017-Nov-19 17:30N 40°00' W 075°04'0 0.0
2017-Nov-19 17:00N 40°00' W 075°04'0 0.0
2017-Nov-19 16:30N 40°00' W 075°04'0 0.0
2017-Nov-19 16:00N 40°00' W 075°04'0 0.0
2017-Nov-19 15:30N 40°00' W 075°04'0 0.0
2017-Nov-19 15:00N 40°00' W 075°04'0 0.0
2017-Nov-19 14:30N 40°00' W 075°04'0 0.0
2017-Nov-19 14:00N 40°00' W 075°04'0 0.0
2017-Nov-19 13:30N 40°00' W 075°04'0 0.0
2017-Nov-19 13:00N 40°00' W 075°04'2 4.2
2017-Nov-19 12:30N 39°58' W 075°06'4 7.5
2017-Nov-19 12:00N 39°55' W 075°08'3 6.0
2017-Nov-19 11:31N 39°53' W 075°11'4 7.7
2017-Nov-19 11:00N 39°56' W 075°08'5 9.1
2017-Nov-19 10:30N 39°59' W 075°04'1 1.2
2017-Nov-19 10:00N 40°00' W 075°04'0 0.0
2017-Nov-19 09:31N 40°00' W 075°04'0 0.0
2017-Nov-19 08:59N 40°00' W 075°04'0 0.0
2017-Nov-19 08:29N 40°00' W 075°04'0 0.0
2017-Nov-19 07:59N 40°00' W 075°04'0 0.0
2017-Nov-19 07:29N 40°00' W 075°04'0 0.0
2017-Nov-19 06:59N 40°00' W 075°04'0 0.0
2017-Nov-19 06:29N 40°00' W 075°04'0 0.0
2017-Nov-19 05:59N 40°00' W 075°04'0 0.0
2017-Nov-19 05:29N 40°00' W 075°04'0 0.0
2017-Nov-19 04:59N 40°00' W 075°04'0 0.0
2017-Nov-19 04:29N 40°00' W 075°04'0 0.0
2017-Nov-19 03:59N 40°00' W 075°04'0 0.0
2017-Nov-19 03:29N 40°00' W 075°04'0 0.0
2017-Nov-19 02:59N 40°00' W 075°04'0 0.0
2017-Nov-19 02:29N 40°00' W 075°04'0 0.0
2017-Nov-19 01:59N 40°00' W 075°04'0 0.0
2017-Nov-19 01:29N 40°00' W 075°04'0 0.0
2017-Nov-19 00:59N 40°00' W 075°04'0 0.0
2017-Nov-19 00:29N 40°00' W 075°04'0 0.0
2017-Nov-18 23:59N 40°00' W 075°04'0 0.0
2017-Nov-18 23:29N 40°00' W 075°04'0 0.0
2017-Nov-18 22:59N 40°00' W 075°04'0 0.0
2017-Nov-18 22:29N 40°00' W 075°04'0 0.0
2017-Nov-18 21:59N 40°00' W 075°04'0 0.0
2017-Nov-18 21:29N 40°00' W 075°04'0 0.0
2017-Nov-18 20:59N 40°00' W 075°04'0 0.0
2017-Nov-18 20:29N 40°00' W 075°04'0 0.0
2017-Nov-18 19:59N 40°00' W 075°04'0 0.0
2017-Nov-18 19:29N 40°00' W 075°04'0 0.0
2017-Nov-18 18:59N 40°00' W 075°04'0 0.0
2017-Nov-18 18:29N 40°00' W 075°04'0 0.0
2017-Nov-18 17:59N 40°00' W 075°04'0 0.0
2017-Nov-18 17:29N 40°00' W 075°04'0 0.0
2017-Nov-18 16:59N 40°00' W 075°04'0 0.0
2017-Nov-18 15:43N 40°00' W 075°04'0 0.0
2017-Nov-18 15:28N 40°00' W 075°04'0 0.0
2017-Nov-18 14:58N 40°00' W 075°04'0 0.0
2017-Nov-18 14:28N 40°00' W 075°04'0 0.0
2017-Nov-18 13:58N 40°00' W 075°04'0 0.0
2017-Nov-18 13:28N 40°00' W 075°04'0 0.0
2017-Nov-18 12:58N 40°00' W 075°04'0 0.0
2017-Nov-18 12:28N 40°00' W 075°04'0 0.0
2017-Nov-18 11:58N 40°00' W 075°04'0 0.0
2017-Nov-18 11:28N 40°00' W 075°04'0 0.0
2017-Nov-18 10:58N 40°00' W 075°04'0 0.0
2017-Nov-18 10:28N 40°00' W 075°04'0 0.0
2017-Nov-18 09:58N 40°00' W 075°04'0 0.0
2017-Nov-18 09:28N 40°00' W 075°04'0 0.0
2017-Nov-18 08:58N 40°00' W 075°04'0 0.0
2017-Nov-18 08:28N 40°00' W 075°04'0 0.0
2017-Nov-18 07:58N 40°00' W 075°04'0 0.0
2017-Nov-18 07:28N 40°00' W 075°04'0 0.0
2017-Nov-18 06:58N 40°00' W 075°04'0 0.0
2017-Nov-18 06:28N 40°00' W 075°04'0 0.0
2017-Nov-18 05:58N 40°00' W 075°04'0 0.0
2017-Nov-18 05:28N 40°00' W 075°04'0 0.0
2017-Nov-18 04:58N 40°00' W 075°04'0 0.0
2017-Nov-18 04:28N 40°00' W 075°04'0 0.0
2017-Nov-18 03:58N 40°00' W 075°04'0 0.0
2017-Nov-18 03:28N 40°00' W 075°04'0 0.0
2017-Nov-18 02:58N 40°00' W 075°04'0 0.0
2017-Nov-18 02:28N 40°00' W 075°04'0 0.0
2017-Nov-18 01:58N 40°00' W 075°04'0 0.0
2017-Nov-18 01:28N 40°00' W 075°04'0 0.0
2017-Nov-18 00:58N 40°00' W 075°04'0 0.0
2017-Nov-18 00:28N 40°00' W 075°04'0 0.0
2017-Nov-17 23:58N 40°00' W 075°04'0 0.0
2017-Nov-17 23:28N 40°00' W 075°04'0 0.0
2017-Nov-17 22:58N 40°00' W 075°04'0 0.0
2017-Nov-17 22:28N 40°00' W 075°04'0 0.0
2017-Nov-17 21:58N 40°00' W 075°04'0 0.0
2017-Nov-17 21:28N 40°00' W 075°04'0 0.0
2017-Nov-17 20:58N 40°00' W 075°04'0 0.0
2017-Nov-17 20:28N 40°00' W 075°04'0 0.0
2017-Nov-17 19:58N 40°00' W 075°04'0 0.0
2017-Nov-17 19:28N 40°00' W 075°04'0 0.0
2017-Nov-17 18:58N 40°00' W 075°04'0 0.0
2017-Nov-17 18:28N 40°00' W 075°04'0 0.0
2017-Nov-17 17:58N 40°00' W 075°04'0 0.0
2017-Nov-17 17:28N 40°00' W 075°04'0 0.0
2017-Nov-17 16:58N 40°00' W 075°04'0 0.0
2017-Nov-17 16:28N 40°00' W 075°04'0 0.0
2017-Nov-17 15:58N 40°00' W 075°04'0 0.0
2017-Nov-17 15:28N 40°00' W 075°04'0 0.0
2017-Nov-17 14:58N 40°00' W 075°04'0 0.0
2017-Nov-17 14:28N 40°00' W 075°04'0 0.0
2017-Nov-17 13:58N 40°00' W 075°04'0 0.0
2017-Nov-17 13:28N 40°00' W 075°04'0 0.0
2017-Nov-17 12:58N 40°00' W 075°04'0 0.0
2017-Nov-17 12:28N 40°00' W 075°04'0 0.0
2017-Nov-17 11:58N 40°00' W 075°04'0 0.0
2017-Nov-17 11:28N 40°00' W 075°04'0 0.0
2017-Nov-17 10:58N 40°00' W 075°04'0 0.0
2017-Nov-17 10:28N 40°00' W 075°04'0 0.0
2017-Nov-17 09:58N 40°00' W 075°04'0 0.0
2017-Nov-17 09:28N 40°00' W 075°04'0 0.0
2017-Nov-17 08:58N 40°00' W 075°04'0 0.0
2017-Nov-17 08:28N 40°00' W 075°04'0 0.0
2017-Nov-17 07:58N 40°00' W 075°04'0 0.0
2017-Nov-17 07:28N 40°00' W 075°04'0 0.0
2017-Nov-17 06:58N 40°00' W 075°04'0 0.0
2017-Nov-17 06:28N 40°00' W 075°04'0 0.0
2017-Nov-17 05:58N 40°00' W 075°04'0 0.0
2017-Nov-17 05:28N 40°00' W 075°04'0 0.0
2017-Nov-17 04:58N 40°00' W 075°04'0 0.0
2017-Nov-17 04:28N 40°00' W 075°04'0 0.0
2017-Nov-17 03:58N 40°00' W 075°04'0 0.0
2017-Nov-17 03:28N 40°00' W 075°04'0 0.0
2017-Nov-17 02:58N 40°00' W 075°04'0 0.0
2017-Nov-17 02:28N 40°00' W 075°04'0 0.0
2017-Nov-17 01:58N 40°00' W 075°04'0 0.0
2017-Nov-17 01:28N 40°00' W 075°04'0 0.0
2017-Nov-17 00:58N 40°00' W 075°04'0 0.0
2017-Nov-17 00:28N 40°00' W 075°04'0 0.0
2017-Nov-16 23:58N 40°00' W 075°04'0 0.0
2017-Nov-16 23:28N 40°00' W 075°04'0 0.0
2017-Nov-16 22:58N 40°00' W 075°04'0 0.0
2017-Nov-16 22:28N 40°00' W 075°04'0 0.0
2017-Nov-16 21:58N 40°00' W 075°04'0 0.0
2017-Nov-16 21:28N 40°00' W 075°04'0 0.0
2017-Nov-16 20:58N 40°00' W 075°04'0 0.0
2017-Nov-16 20:28N 40°00' W 075°04'0 0.0
2017-Nov-16 20:01N 40°00' W 075°04'0 0.1
2017-Nov-16 19:30N 39°60' W 075°04'2 3.1
2017-Nov-16 19:01N 39°59' W 075°05'3 6.3
2017-Nov-16 18:30N 39°57' W 075°08'3 6.6
2017-Nov-16 18:01N 39°54' W 075°08'3 6.9
2017-Nov-16 17:30N 39°52' W 075°12'4 7.7
2017-Nov-16 17:00N 39°51' W 075°17'3 5.8
2017-Nov-16 16:30N 39°51' W 075°21'5 9.2
2017-Nov-16 16:01N 39°48' W 075°25'510.1
2017-Nov-16 15:31N 39°44' W 075°30'5 9.8
2017-Nov-16 15:00N 39°40' W 075°32'4 8.9
2017-Nov-16 14:31N 39°35' W 075°34'3 6.0
2017-Nov-16 14:01N 39°33' W 075°36'4 8.9
2017-Nov-16 13:31N 39°33' W 075°42'5 9.3
2017-Nov-16 13:01N 39°32' W 075°48'4 7.6
2017-Nov-16 12:30N 39°31' W 075°53'4 8.0
2017-Nov-16 12:00N 39°29' W 075°57'5 9.7
2017-Nov-16 11:30N 39°25' W 076°01'510.0
2017-Nov-16 11:01N 39°23' W 076°07'510.3
2017-Nov-16 10:31N 39°20' W 076°12'5 9.9
2017-Nov-16 10:01N 39°15' W 076°14'5 9.7
2017-Nov-16 09:31N 39°11' W 076°17'5 9.1
2017-Nov-16 09:01N 39°06' W 076°20'4 8.3
2017-Nov-16 08:31N 39°03' W 076°21'5 9.8
2017-Nov-16 08:00N 38°58' W 076°23'4 8.7
2017-Nov-16 07:30N 38°54' W 076°24'  
2017-Nov-11 09:30N 37°07' W 076°38'4 8.1
2017-Nov-11 09:00N 37°04' W 076°36'4 7.4
2017-Nov-11 08:27N 37°02' W 076°31'4 8.2
2017-Nov-11 08:00N 36°60' W 076°28'2 4.1
2017-Nov-11 07:30N 36°58' W 076°26'2 3.0
2017-Nov-11 07:00N 36°57' W 076°24'3 5.6
2017-Nov-11 06:31N 36°58' W 076°21'0 0.6
2017-Nov-11 06:01N 36°58' W 076°21'2 4.5
2017-Nov-11 05:30N 36°59' W 076°19'3 5.0
2017-Nov-11 05:00N 37°00' W 076°16'2 4.3
2017-Nov-11 04:30N 37°00' W 076°13'3 5.1
2017-Nov-11 04:00N 36°60' W 076°10'2 4.5
2017-Nov-11 03:30N 37°02' W 076°09'3 6.3
2017-Nov-11 03:00N 37°05' W 076°09'4 7.5
2017-Nov-11 02:30N 37°09' W 076°09'4 7.4
2017-Nov-11 02:00N 37°12' W 076°10'55 7.0
2017-Nov-10 18:06N 38°08' W 076°16'43 7.5
2017-Nov-10 12:19N 38°50' W 076°26'2 7.7
2017-Nov-10 12:00N 38°52' W 076°25'4 8.0
2017-Nov-10 11:30N 38°56' W 076°24'3 6.5
2017-Nov-10 10:59N 38°60' W 076°23'3 5.4
2017-Nov-10 10:30N 39°02' W 076°22'3 5.1
2017-Nov-10 10:00N 39°04' W 076°20'1 2.3
2017-Nov-10 09:31N 39°05' W 076°20'2 3.1
2017-Nov-10 09:01N 39°07' W 076°19'4 7.5
2017-Nov-10 08:30N 39°10' W 076°18'4 8.1
2017-Nov-10 08:00N 39°14' W 076°15'4 7.9
2017-Nov-10 07:30N 39°18' W 076°14'4 7.5
2017-Nov-10 07:00N 39°21' W 076°11'4 7.4
2017-Nov-10 06:30N 39°23' W 076°07'3 7.0
2017-Nov-10 06:00N 39°24' W 076°03'3 6.6
2017-Nov-10 05:30N 39°27' W 075°60'3 6.2
2017-Nov-10 05:00N 39°29' W 075°57'3 5.2
2017-Nov-10 04:30N 39°30' W 075°54'3 5.2
2017-Nov-10 04:00N 39°32' W 075°51'2 4.6
2017-Nov-10 03:30N 39°32' W 075°48'3 5.1
2017-Nov-10 03:00N 39°32' W 075°45'3 5.6
2017-Nov-10 02:30N 39°33' W 075°42'3 6.2
2017-Nov-10 02:00N 39°33' W 075°38'4 7.0
2017-Nov-10 01:30N 39°34' W 075°33'4 7.7
2017-Nov-10 01:01N 39°37' W 075°35'5 9.4
2017-Nov-10 00:31N 39°41' W 075°31'  

Dump ship's entire track history